Time;durP1;ratioP1;P1;durP2;ratioP2;P2;SDS_P1;SDS_P2;PMS_P1;PMS_P2;Temp;Humidity;BMP_temperature;BMP_pressure;BME280_temperature;BME280_humidity;BME280_pressure;Samples;Min_cycle;Max_cycle;Signal;HPM_P1;HPM_P2
2023/01/28 00:00:52;;;;;;;4.47;1.45;;;-2.50;99.90;;;;;;5064259;28;20135;-70
2023/01/28 00:03:19;;;;;;;3.60;2.05;;;-2.40;99.90;;;;;;5062443;28;20113;-69
2023/01/28 00:05:46;;;;;;;3.67;1.30;;;-2.40;99.90;;;;;;5058980;28;20057;-65
2023/01/28 00:08:13;;;;;;;8.77;2.08;;;-2.40;99.90;;;;;;5063679;28;20523;-66
2023/01/28 00:10:44;;;;;;;6.25;1.58;;;-2.40;99.90;;;;;;5073899;28;20052;-65
2023/01/28 00:13:14;;;;;;;8.20;2.05;;;-2.30;99.90;;;;;;5063748;28;20048;-67
2023/01/28 00:15:41;;;;;;;4.05;1.45;;;-2.30;99.90;;;;;;5059270;28;20131;-72
2023/01/28 00:18:08;;;;;;;6.63;2.25;;;-2.30;99.90;;;;;;5063004;28;20072;-68
2023/01/28 00:20:35;;;;;;;6.55;2.35;;;-2.30;99.90;;;;;;5061203;28;20135;-68
2023/01/28 00:23:02;;;;;;;4.95;2.33;;;-2.30;99.90;;;;;;5064553;28;20066;-71
2023/01/28 00:25:30;;;;;;;6.00;2.40;;;-2.30;99.90;;;;;;5060295;28;20063;-72
2023/01/28 00:27:56;;;;;;;5.05;2.58;;;-2.20;99.90;;;;;;5062721;28;20053;-66
2023/01/28 00:30:23;;;;;;;12.65;3.90;;;-2.20;99.90;;;;;;5061949;28;20050;-65
2023/01/28 00:32:52;;;;;;;4.65;3.08;;;-2.20;99.90;;;;;;5063136;28;20147;-65
2023/01/28 00:35:19;;;;;;;7.55;3.35;;;-2.20;99.90;;;;;;5061625;28;20258;-65
2023/01/28 00:37:46;;;;;;;7.82;2.63;;;-2.20;99.90;;;;;;5065443;28;20048;-75
2023/01/28 00:40:13;;;;;;;3.60;1.98;;;-2.30;99.90;;;;;;5074243;28;20041;-64
2023/01/28 00:42:40;;;;;;;4.65;1.70;;;-2.20;99.90;;;;;;5061089;28;20139;-66
2023/01/28 00:45:07;;;;;;;7.72;2.30;;;-2.20;99.90;;;;;;5063160;28;20060;-65
2023/01/28 00:47:34;;;;;;;10.70;2.88;;;-2.10;99.90;;;;;;5060454;28;20078;-64
2023/01/28 00:50:02;;;;;;;3.30;1.58;;;-2.10;99.90;;;;;;5062203;28;20517;-64
2023/01/28 00:52:30;;;;;;;9.27;1.70;;;-2.00;99.90;;;;;;5061110;28;20406;-75
2023/01/28 00:54:57;;;;;;;1.73;1.23;;;-1.90;99.90;;;;;;5064375;28;20139;-66
2023/01/28 00:57:25;;;;;;;1.70;1.17;;;-1.80;99.90;;;;;;5061532;28;20052;-68
2023/01/28 00:59:51;;;;;;;0.45;0.45;;;-1.70;99.90;;;;;;5060937;28;20037;-68
2023/01/28 01:02:20;;;;;;;5.47;1.40;;;-1.60;99.90;;;;;;5061082;28;20090;-64
2023/01/28 01:04:59;;;;;;;2.15;1.00;;;-1.60;99.90;;;;;;5065343;28;20108;-74
2023/01/28 01:07:33;;;;;;;0.85;0.57;;;-1.50;99.90;;;;;;5067647;28;20140;-66
2023/01/28 01:10:01;;;;;;;2.72;0.70;;;-1.40;99.90;;;;;;5064594;28;20044;-68
2023/01/28 01:12:28;;;;;;;4.15;1.27;;;-1.30;99.90;;;;;;5061649;28;20044;-70
2023/01/28 01:14:56;;;;;;;2.92;1.15;;;-1.20;99.90;;;;;;5066421;28;20529;-69
2023/01/28 01:17:23;;;;;;;2.97;1.05;;;-1.20;99.90;;;;;;5064893;28;20059;-65
2023/01/28 01:19:50;;;;;;;4.70;1.73;;;-1.10;99.90;;;;;;5068645;28;20110;-69
2023/01/28 01:22:17;;;;;;;9.70;1.38;;;-1.10;99.90;;;;;;5068720;28;20103;-64
2023/01/28 01:24:44;;;;;;;4.50;1.13;;;-1.10;99.90;;;;;;5059768;28;20111;-65
2023/01/28 01:27:11;;;;;;;12.23;2.00;;;-1.10;99.90;;;;;;5067817;28;20494;-71
2023/01/28 01:29:38;;;;;;;3.65;1.33;;;-1.00;99.90;;;;;;5064689;28;20048;-64
2023/01/28 01:32:06;;;;;;;2.50;0.77;;;-1.00;99.90;;;;;;5066662;28;20040;-65
2023/01/28 01:34:33;;;;;;;3.25;0.98;;;-1.00;99.90;;;;;;5065741;28;20106;-70
2023/01/28 01:37:00;;;;;;;4.85;1.00;;;-1.00;99.90;;;;;;5065564;28;20157;-66
2023/01/28 01:39:26;;;;;;;4.32;1.27;;;-1.00;99.90;;;;;;5068039;28;20149;-67
2023/01/28 01:41:53;;;;;;;2.20;0.90;;;-1.00;99.90;;;;;;5063008;28;20040;-68
2023/01/28 01:44:55;;;;;;;1.50;1.10;;;-0.90;99.90;;;;;;5063849;28;20048;-68
2023/01/28 01:47:45;;;;;;;5.53;1.52;;;-0.80;99.90;;;;;;5058787;28;20053;-65
2023/01/28 01:50:27;;;;;;;2.80;0.73;;;-0.90;99.90;;;;;;5061130;28;20051;-65
2023/01/28 01:52:56;;;;;;;2.47;0.95;;;-0.90;99.90;;;;;;5063440;28;20098;-67
2023/01/28 01:55:25;;;;;;;3.33;0.67;;;-1.00;99.90;;;;;;5063181;28;20049;-67
2023/01/28 01:57:55;;;;;;;7.30;0.50;;;-1.00;99.90;;;;;;5063458;28;20090;-64
2023/01/28 02:00:23;;;;;;;;;;;-1.00;99.90;;;;;;5064567;28;20048;-61
2023/01/28 02:02:51;;;;;;;5.28;0.88;;;-1.00;99.90;;;;;;5063963;28;19935;-64
2023/01/28 02:05:21;;;;;;;4.28;0.80;;;-1.00;99.90;;;;;;5057404;28;20047;-66
2023/01/28 02:07:53;;;;;;;2.33;0.70;;;-1.10;99.90;;;;;;5065532;28;20047;-68
2023/01/28 02:10:21;;;;;;;3.17;0.63;;;-1.10;99.90;;;;;;5067232;28;20448;-72
2023/01/28 02:12:54;;;;;;;4.78;0.95;;;-1.10;99.90;;;;;;5060163;28;20055;-66
2023/01/28 02:15:28;;;;;;;1.52;1.20;;;-1.10;99.90;;;;;;5069176;28;20051;-66
2023/01/28 02:17:56;;;;;;;0.60;0.40;;;-1.10;99.90;;;;;;5057265;28;20068;-65
2023/01/28 02:20:51;;;;;;;3.67;0.55;;;-1.10;99.90;;;;;;5062940;28;20090;-68
2023/01/28 02:23:41;;;;;;;1.35;0.60;;;-1.20;99.90;;;;;;5060924;28;20041;-65
2023/01/28 02:26:42;;;;;;;2.50;0.77;;;-1.20;99.90;;;;;;5043565;28;20044;-71
2023/01/28 02:29:15;;;;;;;4.30;0.85;;;-1.20;99.90;;;;;;5056835;28;20079;-71
2023/01/28 02:32:18;;;;;;;3.80;0.60;;;-1.20;99.90;;;;;;5056641;28;20076;-65
2023/01/28 02:34:53;;;;;;;4.38;0.80;;;-1.20;99.90;;;;;;5059803;28;20048;-64
2023/01/28 02:37:21;;;;;;;2.13;0.50;;;-1.30;99.90;;;;;;5058873;28;20085;-66
2023/01/28 02:39:53;;;;;;;3.42;0.63;;;-1.30;99.90;;;;;;5075477;28;20048;-73
2023/01/28 02:42:28;;;;;;;2.33;0.57;;;-1.30;99.90;;;;;;5056805;28;20163;-65
2023/01/28 02:44:55;;;;;;;3.47;0.60;;;-1.30;99.90;;;;;;5056328;28;20076;-65
2023/01/28 02:50:13;;;;;;;2.15;0.47;;;-1.40;99.90;;;;;;5056701;28;20063;-64
2023/01/28 02:56:01;;;;;;;2.58;0.40;;;-1.40;99.90;;;;;;5037934;28;20103;-68
2023/01/28 02:58:56;;;;;;;1.48;0.73;;;-1.40;99.90;;;;;;5055026;28;20040;-67
2023/01/28 03:01:57;;;;;;;1.65;0.60;;;-1.40;99.90;;;;;;5056657;28;20048;-67
2023/01/28 03:04:30;;;;;;;4.47;0.77;;;-1.50;99.90;;;;;;5075384;28;20075;-64
2023/01/28 03:07:03;;;;;;;3.33;0.43;;;-1.40;99.90;;;;;;5057727;28;20060;-64
2023/01/28 03:09:31;;;;;;;1.95;0.68;;;-1.40;99.90;;;;;;5058165;28;20368;-67
2023/01/28 03:38:24;;;;;;;11.43;4.50;;;-1.50;99.90;;;;;;5059796;28;20097;-62
2023/01/28 03:40:56;;;;;;;10.07;3.00;;;-1.40;99.90;;;;;;5055090;28;20458;-62
2023/01/28 03:43:23;;;;;;;3.33;1.63;;;-1.40;99.90;;;;;;5061347;28;20048;-64
2023/01/28 03:45:50;;;;;;;1.75;1.17;;;-1.40;99.90;;;;;;5058387;28;20061;-65
2023/01/28 03:48:18;;;;;;;3.10;1.13;;;-1.50;99.90;;;;;;5057285;28;20137;-61
2023/01/28 03:50:46;;;;;;;0.93;0.50;;;-1.50;99.90;;;;;;5067604;28;20147;-65
2023/01/28 03:53:14;;;;;;;5.72;0.90;;;-1.50;99.90;;;;;;5058355;28;20105;-62
2023/01/28 03:55:52;;;;;;;1.85;0.80;;;-1.40;99.90;;;;;;5060286;28;20139;-64
2023/01/28 03:58:20;;;;;;;1.57;0.90;;;-1.40;99.90;;;;;;5056951;28;20095;-63
2023/01/28 04:00:47;;;;;;;2.83;2.50;;;-1.40;99.90;;;;;;5057638;28;20053;-63
2023/01/28 04:03:17;;;;;;;3.08;1.90;;;-1.40;99.90;;;;;;5060348;28;20053;-62
2023/01/28 04:06:01;;;;;;;1.15;0.65;;;-1.40;99.90;;;;;;5050465;28;20139;-66
2023/01/28 04:08:51;;;;;;;3.25;0.88;;;-1.30;99.90;;;;;;5056379;28;20472;-65
2023/01/28 04:11:41;;;;;;;1.23;0.80;;;-1.30;99.90;;;;;;5052727;28;20076;-63
2023/01/28 04:14:12;;;;;;;2.90;0.80;;;-1.30;99.90;;;;;;5057261;28;21050;-66
2023/01/28 04:17:06;;;;;;;2.60;0.52;;;-1.30;99.90;;;;;;5056930;28;20057;-66
2023/01/28 04:19:36;;;;;;;1.98;0.68;;;-1.20;99.90;;;;;;5057889;28;20424;-63
2023/01/28 04:22:06;;;;;;;1.00;0.52;;;-1.20;99.90;;;;;;5059858;28;20052;-62
2023/01/28 04:24:34;;;;;;;3.58;0.85;;;-1.10;99.90;;;;;;5056691;28;20063;-67
2023/01/28 04:27:01;;;;;;;0.90;0.63;;;-1.20;99.90;;;;;;5050995;28;20094;-72
2023/01/28 04:29:27;;;;;;;2.28;0.55;;;-1.10;99.90;;;;;;5057931;28;20087;-64
2023/01/28 04:31:59;;;;;;;2.88;0.90;;;-1.00;99.90;;;;;;5055458;28;20516;-66
2023/01/28 04:34:37;;;;;;;4.10;0.40;;;-1.00;99.90;;;;;;5054058;28;20116;-62
2023/01/28 04:37:14;;;;;;;2.78;0.65;;;-1.00;99.90;;;;;;5058397;28;20079;-65
2023/01/28 04:39:46;;;;;;;2.28;0.55;;;-1.00;99.90;;;;;;5060447;28;20059;-62
2023/01/28 04:42:20;;;;;;;1.50;0.70;;;-1.00;99.90;;;;;;5060533;28;20114;-67
2023/01/28 04:45:05;;;;;;;3.65;0.52;;;-1.10;99.90;;;;;;5054817;28;20049;-65
2023/01/28 04:47:51;;;;;;;1.02;0.68;;;-1.00;99.90;;;;;;5058404;28;20074;-67
2023/01/28 04:50:28;;;;;;;2.40;0.90;;;-1.00;99.90;;;;;;5054036;28;20098;-63
2023/01/28 04:53:18;;;;;;;3.67;0.60;;;-1.00;99.90;;;;;;5036486;28;20040;-73
2023/01/28 04:55:58;;;;;;;1.95;0.30;;;-0.90;99.90;;;;;;5057546;28;20474;-64
2023/01/28 04:58:29;;;;;;;2.10;0.40;;;-0.80;99.90;;;;;;5058691;28;20049;-63
2023/01/28 05:01:00;;;;;;;0.88;0.38;;;-0.80;99.90;;;;;;5058557;28;20040;-64
2023/01/28 05:03:29;;;;;;;1.67;0.77;;;-0.80;99.90;;;;;;5052370;28;20120;-65
2023/01/28 05:05:56;;;;;;;1.23;0.43;;;-0.80;99.90;;;;;;5048758;28;20106;-68
2023/01/28 05:08:33;;;;;;;0.43;0.28;;;-0.70;99.90;;;;;;5073625;28;20240;-66
2023/01/28 05:11:00;;;;;;;2.60;0.85;;;-0.70;99.90;;;;;;5058004;28;20044;-63
2023/01/28 05:13:27;;;;;;;2.40;0.70;;;-0.60;99.90;;;;;;5060241;28;20048;-69
2023/01/28 05:15:54;;;;;;;1.20;0.52;;;-0.60;99.90;;;;;;5058687;28;20053;-66
2023/01/28 05:18:21;;;;;;;0.22;0.22;;;-0.60;99.90;;;;;;5053319;28;20055;-62
2023/01/28 05:21:04;;;;;;;3.50;0.60;;;-0.50;99.90;;;;;;5054609;28;20499;-65
2023/01/28 05:23:33;;;;;;;1.07;0.40;;;-0.50;99.90;;;;;;5043222;28;20146;-63
2023/01/28 05:26:00;;;;;;;2.08;0.43;;;-0.40;99.90;;;;;;5058382;28;20090;-64
2023/01/28 05:28:28;;;;;;;3.20;0.55;;;-0.40;99.90;;;;;;5059145;28;20049;-67
2023/01/28 05:31:01;;;;;;;3.70;0.70;;;-0.30;99.90;;;;;;5052198;28;20071;-65
2023/01/28 05:33:28;;;;;;;1.27;0.43;;;-0.30;99.90;;;;;;5058541;28;20438;-71
2023/01/28 05:35:55;;;;;;;1.38;0.50;;;-0.30;99.90;;;;;;5054333;28;20147;-71
2023/01/28 05:38:22;;;;;;;5.20;1.58;;;-0.30;99.90;;;;;;5058314;28;20099;-66
2023/01/28 05:40:50;;;;;;;5.85;0.50;;;-0.20;99.90;;;;;;5059533;28;20044;-64
2023/01/28 05:43:17;;;;;;;3.47;0.98;;;-0.20;99.90;;;;;;5057464;28;20048;-65
2023/01/28 05:46:10;;;;;;;1.92;0.50;;;-0.20;99.90;;;;;;5035202;28;20044;-65
2023/01/28 05:48:55;;;;;;;1.45;0.50;;;-0.20;99.90;;;;;;5059940;28;20093;-67
2023/01/28 05:51:49;;;;;;;0.82;0.50;;;-0.20;99.90;;;;;;5060894;28;20677;-65
2023/01/28 05:54:19;;;;;;;0.50;0.47;;;-0.20;99.90;;;;;;5059888;28;20386;-68
2023/01/28 05:56:47;;;;;;;2.75;0.30;;;-0.10;99.90;;;;;;5055718;28;20493;-64
2023/01/28 05:59:14;;;;;;;3.70;0.82;;;0.00;99.90;;;;;;5062757;28;20052;-71
2023/01/28 06:01:43;;;;;;;1.85;0.50;;;0.00;99.90;;;;;;5076116;28;20120;-64
2023/01/28 06:04:09;;;;;;;1.92;0.63;;;-0.10;99.90;;;;;;5060926;28;20084;-66
2023/01/28 06:06:38;;;;;;;1.20;0.55;;;-0.10;99.90;;;;;;5055828;28;20086;-64
2023/01/28 06:09:05;;;;;;;2.50;0.57;;;-0.20;99.90;;;;;;5049482;28;20053;-65
2023/01/28 06:11:33;;;;;;;1.60;0.50;;;-0.10;99.90;;;;;;5071206;28;20110;-64
2023/01/28 06:14:02;;;;;;;2.53;1.52;;;-0.10;99.90;;;;;;5062688;28;20052;-69
2023/01/28 06:16:51;;;;;;;2.45;0.90;;;-0.10;99.90;;;;;;5055038;28;20155;-64
2023/01/28 06:19:26;;;;;;;2.03;0.90;;;-0.10;99.90;;;;;;5062520;28;20048;-65
2023/01/28 06:21:54;;;;;;;1.73;0.98;;;-0.10;99.90;;;;;;5061101;28;20131;-65
2023/01/28 06:24:21;;;;;;;4.88;1.55;;;-0.10;99.90;;;;;;5059639;28;20512;-65
2023/01/28 06:26:48;;;;;;;1.23;0.80;;;-0.10;99.90;;;;;;5061167;28;20132;-64
2023/01/28 06:29:15;;;;;;;1.15;0.80;;;-0.10;99.90;;;;;;5059812;28;20064;-68
2023/01/28 06:31:41;;;;;;;1.10;0.68;;;0.00;99.90;;;;;;5061283;28;20044;-65
2023/01/28 06:34:09;;;;;;;4.18;0.90;;;0.00;99.90;;;;;;5059822;28;20067;-68
2023/01/28 06:36:39;;;;;;;5.90;1.23;;;-0.10;99.90;;;;;;5061981;28;20066;-65
2023/01/28 06:39:06;;;;;;;1.30;1.02;;;-0.10;99.90;;;;;;5058210;28;20447;-67
2023/01/28 06:41:32;;;;;;;1.00;0.73;;;-0.10;99.90;;;;;;5057617;28;20052;-70
2023/01/28 06:44:00;;;;;;;3.08;1.10;;;-0.10;99.90;;;;;;5058199;28;20052;-64
2023/01/28 06:46:27;;;;;;;2.75;1.85;;;-0.10;99.90;;;;;;5059741;28;20049;-69
2023/01/28 06:48:54;;;;;;;1.85;1.05;;;-0.10;99.90;;;;;;5062621;28;20127;-69
2023/01/28 06:51:20;;;;;;;0.88;0.60;;;-0.10;99.90;;;;;;5058416;28;20044;-64
2023/01/28 06:53:47;;;;;;;3.38;0.80;;;-0.10;99.90;;;;;;5062898;28;20048;-64
2023/01/28 06:56:14;;;;;;;1.85;0.60;;;-0.10;99.90;;;;;;5056986;28;20049;-71
2023/01/28 06:58:41;;;;;;;3.05;1.00;;;-0.10;99.90;;;;;;5058456;28;20474;-63
2023/01/28 07:01:08;;;;;;;3.42;0.90;;;0.00;99.90;;;;;;5048022;28;20052;-64
2023/01/28 07:03:35;;;;;;;1.55;1.10;;;0.00;99.90;;;;;;5061214;28;20431;-68
2023/01/28 07:06:02;;;;;;;0.98;0.40;;;0.00;99.90;;;;;;5060939;28;20048;-64
2023/01/28 07:08:30;;;;;;;2.28;0.88;;;0.00;99.90;;;;;;5062547;28;20040;-70
2023/01/28 07:10:57;;;;;;;1.67;1.10;;;0.10;99.90;;;;;;5062689;28;20049;-64
2023/01/28 07:13:24;;;;;;;3.53;0.57;;;0.10;99.90;;;;;;5064034;28;20135;-64
2023/01/28 07:15:51;;;;;;;2.25;0.60;;;0.10;99.90;;;;;;5059201;28;20098;-66
2023/01/28 07:18:17;;;;;;;2.58;0.68;;;0.20;99.90;;;;;;5060338;28;20052;-65
2023/01/28 07:20:44;;;;;;;5.85;0.90;;;0.20;99.90;;;;;;5060035;28;20052;-65
2023/01/28 07:23:11;;;;;;;3.67;0.88;;;0.30;99.90;;;;;;5061215;28;20075;-66
2023/01/28 07:25:38;;;;;;;1.58;0.63;;;0.40;99.90;;;;;;5061166;28;20114;-68
2023/01/28 07:28:05;;;;;;;3.03;0.45;;;0.40;99.90;;;;;;5059743;28;20060;-64
2023/01/28 07:30:32;;;;;;;0.45;0.43;;;0.50;99.90;;;;;;5060369;28;20568;-66
2023/01/28 07:32:59;;;;;;;2.38;0.73;;;0.50;99.90;;;;;;5057048;28;20139;-65
2023/01/28 07:35:27;;;;;;;1.55;0.32;;;0.60;99.90;;;;;;5062602;28;20410;-65
2023/01/28 07:37:56;;;;;;;5.32;0.70;;;0.60;99.90;;;;;;5057594;28;20058;-64
2023/01/28 07:40:23;;;;;;;2.13;0.50;;;0.70;99.90;;;;;;5061588;28;20139;-67
2023/01/28 07:42:51;;;;;;;3.40;0.88;;;0.70;99.90;;;;;;5053922;28;20054;-64
2023/01/28 07:45:22;;;;;;;3.38;0.70;;;0.80;99.90;;;;;;5058632;28;20117;-63
2023/01/28 07:47:56;;;;;;;0.55;0.40;;;0.80;99.90;;;;;;5058616;28;20420;-72
2023/01/28 07:50:23;;;;;;;1.15;0.40;;;0.80;99.90;;;;;;5061102;28;20410;-65
2023/01/28 07:52:50;;;;;;;0.40;0.35;;;0.80;99.90;;;;;;5059358;28;20048;-64
2023/01/28 07:55:17;;;;;;;1.90;0.38;;;0.90;99.90;;;;;;5057224;28;20201;-64
2023/01/28 07:57:52;;;;;;;8.65;0.93;;;0.90;99.90;;;;;;5059268;28;20048;-64
2023/01/28 08:00:20;;;;;;;1.02;0.45;;;0.80;99.90;;;;;;5057801;28;20052;-68
2023/01/28 08:02:47;;;;;;;1.92;0.28;;;0.90;99.90;;;;;;5055174;28;20047;-64
2023/01/28 08:05:19;;;;;;;3.13;0.30;;;0.90;99.90;;;;;;5061264;28;20421;-64
2023/01/28 08:07:47;;;;;;;14.02;0.63;;;0.90;99.90;;;;;;5054405;28;20098;-72
2023/01/28 08:10:16;;;;;;;5.57;0.43;;;0.90;99.90;;;;;;5060117;28;20268;-65
2023/01/28 08:13:00;;;;;;;5.57;0.88;;;0.90;99.90;;;;;;5053487;28;20135;-63
2023/01/28 08:15:28;;;;;;;3.15;0.55;;;0.90;99.90;;;;;;5061483;28;20052;-68
2023/01/28 08:17:57;;;;;;;0.32;0.25;;;0.90;99.90;;;;;;5062358;28;20159;-64
2023/01/28 08:20:25;;;;;;;9.68;0.80;;;0.90;99.90;;;;;;5059712;28;20068;-66
2023/01/28 08:22:53;;;;;;;1.58;0.30;;;1.00;99.90;;;;;;5057530;28;20131;-65
2023/01/28 08:25:20;;;;;;;2.13;0.80;;;1.00;99.90;;;;;;5062852;28;20048;-63
2023/01/28 08:27:47;;;;;;;4.30;2.05;;;1.00;99.90;;;;;;5060324;28;20144;-69
2023/01/28 08:30:14;;;;;;;4.47;2.08;;;1.10;99.90;;;;;;5061334;28;20433;-64
2023/01/28 08:32:41;;;;;;;13.65;2.03;;;1.10;99.90;;;;;;5058239;28;20060;-65
2023/01/28 08:35:08;;;;;;;8.68;3.60;;;1.10;99.90;;;;;;5058589;28;20092;-69
2023/01/28 08:37:35;;;;;;;5.60;2.58;;;1.20;99.90;;;;;;5062484;28;20053;-63
2023/01/28 08:40:03;;;;;;;12.52;1.52;;;1.20;99.90;;;;;;5062163;28;20052;-63
2023/01/28 08:42:29;;;;;;;4.32;2.67;;;1.30;99.90;;;;;;5060918;28;20063;-69
2023/01/28 08:44:56;;;;;;;4.38;1.52;;;1.30;99.90;;;;;;5061641;28;20313;-63
2023/01/28 08:47:23;;;;;;;9.32;1.40;;;1.40;99.90;;;;;;5061707;28;20076;-63
2023/01/28 08:49:50;;;;;;;9.45;1.30;;;1.40;99.90;;;;;;5061559;28;20050;-69
2023/01/28 08:52:17;;;;;;;2.92;0.80;;;1.50;99.90;;;;;;5058765;28;20060;-65
2023/01/28 08:54:44;;;;;;;3.85;1.15;;;1.50;99.90;;;;;;5059507;28;20056;-63
2023/01/28 08:57:11;;;;;;;5.03;0.85;;;1.60;99.90;;;;;;5059285;28;20049;-70
2023/01/28 08:59:43;;;;;;;13.30;4.75;;;1.60;99.90;;;;;;5058801;28;20045;-63
2023/01/28 09:02:13;;;;;;;1.92;0.57;;;1.60;99.90;;;;;;5054294;28;20044;-70
2023/01/28 09:04:56;;;;;;;2.97;0.93;;;1.60;99.90;;;;;;5060747;28;20135;-65
2023/01/28 09:07:23;;;;;;;1.20;1.10;;;1.70;99.90;;;;;;5060105;28;20045;-68
2023/01/28 09:09:50;;;;;;;2.60;0.75;;;1.70;99.90;;;;;;5062106;28;20507;-65
2023/01/28 09:12:17;;;;;;;3.25;1.60;;;1.70;99.90;;;;;;5059794;28;20143;-66
2023/01/28 09:14:44;;;;;;;7.55;0.70;;;1.80;99.90;;;;;;5058957;28;20046;-64
2023/01/28 09:17:10;;;;;;;6.18;1.23;;;1.70;99.90;;;;;;5059609;28;20490;-71
2023/01/28 09:19:37;;;;;;;6.30;1.80;;;1.70;99.90;;;;;;5061624;28;20304;-65
2023/01/28 09:22:04;;;;;;;0.70;0.50;;;1.70;99.90;;;;;;5062478;28;20045;-63
2023/01/28 09:24:31;;;;;;;6.32;1.33;;;1.70;99.90;;;;;;5061047;28;20052;-64
2023/01/28 09:26:58;;;;;;;3.63;0.77;;;1.80;99.90;;;;;;5064535;28;20211;-68
2023/01/28 09:29:25;;;;;;;7.43;0.60;;;1.70;99.90;;;;;;5062617;28;20140;-66
2023/01/28 09:31:52;;;;;;;5.68;1.08;;;1.70;99.90;;;;;;5063285;28;20044;-69
2023/01/28 09:34:19;;;;;;;4.50;1.83;;;1.70;99.90;;;;;;5062822;28;20151;-65
2023/01/28 09:36:46;;;;;;;7.03;2.22;;;1.70;99.90;;;;;;5060957;28;20150;-64
2023/01/28 09:39:13;;;;;;;5.82;2.58;;;1.70;99.90;;;;;;5060336;28;20398;-69
2023/01/28 09:41:59;;;;;;;2.13;1.15;;;1.80;99.90;;;;;;5064503;28;20049;-63
2023/01/28 09:44:48;;;;;;;3.35;1.10;;;1.80;99.90;;;;;;5062069;28;20201;-68
2023/01/28 09:47:25;;;;;;;7.78;1.10;;;1.80;99.90;;;;;;5059548;28;20057;-66
2023/01/28 09:49:56;;;;;;;2.90;1.33;;;1.80;99.90;;;;;;5062358;28;20053;-63
2023/01/28 09:52:24;;;;;;;5.78;1.25;;;1.80;99.90;;;;;;5060962;28;20471;-64
2023/01/28 09:55:11;;;;;;;7.00;0.68;;;1.70;99.90;;;;;;5061591;28;20127;-66
2023/01/28 09:57:52;;;;;;;5.47;1.45;;;1.70;99.90;;;;;;5059170;28;20066;-65
2023/01/28 10:00:22;;;;;;;4.40;1.10;;;1.80;99.90;;;;;;5057922;28;20097;-64
2023/01/28 10:03:21;;;;;;;4.38;1.00;;;1.80;99.90;;;;;;5068241;28;20129;-65
2023/01/28 10:06:05;;;;;;;3.17;0.93;;;1.80;99.90;;;;;;5062780;28;20501;-66
2023/01/28 10:09:06;;;;;;;6.03;1.10;;;1.80;99.90;;;;;;5060268;28;20054;-68
2023/01/28 10:11:48;;;;;;;;;;;1.80;99.90;;;;;;5063464;28;20052;-71
2023/01/28 10:14:20;;;;;;;5.18;0.98;;;1.80;99.90;;;;;;5060372;28;19928;-67
2023/01/28 10:17:06;;;;;;;3.53;1.27;;;1.90;99.90;;;;;;5058774;28;20144;-67
2023/01/28 10:19:42;;;;;;;5.60;1.80;;;1.90;99.90;;;;;;5059020;28;20048;-66
2023/01/28 10:22:29;;;;;;;5.60;0.70;;;1.90;99.90;;;;;;5063126;28;20099;-67
2023/01/28 10:25:05;;;;;;;5.65;1.13;;;2.00;99.90;;;;;;5060313;28;20089;-65
2023/01/28 10:27:35;;;;;;;5.93;1.27;;;2.00;99.90;;;;;;5059638;28;20517;-73
2023/01/28 10:30:18;;;;;;;12.02;2.17;;;2.10;99.90;;;;;;5059683;28;20052;-64
2023/01/28 10:33:04;;;;;;;5.65;1.73;;;2.10;99.90;;;;;;5060292;28;20056;-66
2023/01/28 10:35:38;;;;;;;7.13;1.77;;;2.10;99.90;;;;;;5060357;28;20525;-68
2023/01/28 10:38:09;;;;;;;6.22;2.03;;;2.10;99.90;;;;;;5061906;28;20052;-70
2023/01/28 10:40:35;;;;;;;;;;;2.20;99.90;;;;;;5060181;28;20048;-64
2023/01/28 10:43:03;;;;;;;6.68;1.52;;;2.20;99.90;;;;;;5061208;28;20305;-64
2023/01/28 10:45:37;;;;;;;1.38;0.95;;;2.20;99.90;;;;;;5060570;28;20156;-67
2023/01/28 10:48:23;;;;;;;8.95;1.90;;;2.20;99.90;;;;;;5060522;28;20517;-66
2023/01/28 10:50:55;;;;;;;3.83;2.53;;;2.20;99.90;;;;;;5059765;28;20142;-64
2023/01/28 10:53:40;;;;;;;7.15;2.00;;;2.20;99.90;;;;;;5058790;28;20044;-65
2023/01/28 10:56:27;;;;;;;5.45;1.52;;;2.20;99.90;;;;;;5059883;28;20109;-66
2023/01/28 10:59:04;;;;;;;13.25;1.92;;;2.20;99.90;;;;;;5060112;28;20044;-65
2023/01/28 11:02:03;;;;;;;7.47;1.58;;;2.20;99.90;;;;;;5057391;28;20052;-67
2023/01/28 11:04:33;;;;;;;9.60;1.50;;;2.10;99.90;;;;;;5055979;28;20052;-67
2023/01/28 11:07:01;;;;;;;8.73;2.10;;;2.10;99.90;;;;;;5063537;28;20067;-64
2023/01/28 11:09:36;;;;;;;5.50;1.77;;;2.00;99.90;;;;;;5060877;28;20644;-64
2023/01/28 11:12:20;;;;;;;9.63;2.53;;;2.00;99.90;;;;;;5062632;28;20052;-66
2023/01/28 11:15:02;;;;;;;9.05;2.30;;;2.00;99.90;;;;;;5056674;28;20131;-63
2023/01/28 11:17:33;;;;;;;6.45;1.85;;;2.00;99.90;;;;;;5059023;28;20498;-65
2023/01/28 11:20:10;;;;;;;10.32;2.47;;;1.90;99.90;;;;;;5060080;28;20367;-68
2023/01/28 11:22:41;;;;;;;11.93;3.72;;;1.90;99.90;;;;;;5058443;28;20401;-63
2023/01/28 11:25:34;;;;;;;10.25;3.22;;;1.90;99.90;;;;;;5058843;28;20098;-65
2023/01/28 11:28:06;;;;;;;5.03;2.40;;;1.90;99.90;;;;;;5059767;28;20044;-67
2023/01/28 11:30:39;;;;;;;12.15;2.58;;;1.90;99.90;;;;;;5058616;28;20060;-64
2023/01/28 11:33:20;;;;;;;9.15;2.10;;;1.90;99.90;;;;;;5062009;28;20465;-64
2023/01/28 11:35:54;;;;;;;11.98;4.10;;;1.90;99.90;;;;;;5062951;28;20080;-66
2023/01/28 11:38:24;;;;;;;11.23;2.55;;;1.90;99.90;;;;;;5061215;28;20064;-65
2023/01/28 11:40:51;;;;;;;7.17;5.20;;;1.80;99.90;;;;;;5059870;28;20131;-64
2023/01/28 11:43:25;;;;;;;9.35;2.22;;;1.90;99.90;;;;;;5060015;28;20105;-68
2023/01/28 11:46:04;;;;;;;9.85;2.20;;;1.80;99.90;;;;;;5060060;28;20041;-65
2023/01/28 11:48:31;;;;;;;9.23;2.03;;;1.80;99.90;;;;;;5060488;28;20528;-68
2023/01/28 11:51:05;;;;;;;9.95;2.42;;;1.80;99.90;;;;;;5062431;28;20044;-63
2023/01/28 11:54:05;;;;;;;11.07;3.00;;;1.80;99.90;;;;;;5060258;28;20136;-66
2023/01/28 11:57:01;;;;;;;9.60;2.53;;;1.80;99.90;;;;;;5059183;28;20041;-66
2023/01/28 11:59:34;;;;;;;14.77;3.38;;;1.80;99.90;;;;;;5047402;28;20083;-66
2023/01/28 12:02:33;;;;;;;9.05;3.35;;;1.80;99.90;;;;;;5062766;28;20448;-64
2023/01/28 12:05:06;;;;;;;6.73;3.07;;;1.70;99.90;;;;;;5060674;28;20082;-66
2023/01/28 12:07:52;;;;;;;10.05;2.63;;;1.70;99.90;;;;;;5062737;28;20040;-66
2023/01/28 12:10:50;;;;;;;8.73;3.75;;;1.70;99.90;;;;;;5062205;28;20056;-65
2023/01/28 12:13:28;;;;;;;9.13;2.30;;;1.70;99.90;;;;;;5060244;28;20045;-64
2023/01/28 12:16:12;;;;;;;10.15;3.53;;;1.70;99.90;;;;;;5059336;28;20091;-71
2023/01/28 12:18:42;;;;;;;6.35;3.00;;;1.70;99.90;;;;;;5060002;28;20049;-66
2023/01/28 12:21:21;;;;;;;7.90;2.70;;;1.70;99.90;;;;;;5060572;28;20044;-69
2023/01/28 12:24:43;;;;;;;22.08;4.38;;;1.70;99.90;;;;;;5059464;28;20041;-64
2023/01/28 12:27:21;;;;;;;6.30;2.67;;;1.70;99.90;;;;;;4975752;28;20077;-67
2023/01/28 12:30:13;;;;;;;6.72;2.60;;;1.70;99.90;;;;;;5050549;28;20101;-66
2023/01/28 12:32:58;;;;;;;6.30;3.40;;;1.70;99.90;;;;;;5059716;28;20057;-69
2023/01/28 12:35:42;;;;;;;6.53;3.58;;;1.80;99.90;;;;;;5061843;28;20064;-69
2023/01/28 12:38:26;;;;;;;6.57;3.63;;;1.80;99.90;;;;;;5062264;28;20060;-67
2023/01/28 12:41:08;;;;;;;8.48;4.05;;;1.80;99.90;;;;;;5059548;28;20052;-65
2023/01/28 12:43:41;;;;;;;12.00;3.95;;;1.80;99.90;;;;;;5059642;28;20070;-64
2023/01/28 12:46:58;;;;;;;17.00;4.57;;;1.80;99.90;;;;;;5060107;28;20444;-66
2023/01/28 12:49:40;;;;;;;8.40;2.80;;;1.80;99.90;;;;;;5041533;28;20040;-65
2023/01/28 12:52:21;;;;;;;11.68;4.93;;;1.70;99.90;;;;;;5066729;28;20044;-66
2023/01/28 12:55:03;;;;;;;7.88;4.40;;;1.70;99.90;;;;;;5061015;28;20175;-65
2023/01/28 12:57:31;;;;;;;;;;;1.70;99.90;;;;;;5067338;28;20066;-64
2023/01/28 13:00:24;;;;;;;4.50;4.03;;;1.70;99.90;;;;;;5062490;28;19921;-67
2023/01/28 13:03:08;;;;;;;8.82;3.25;;;1.70;99.90;;;;;;5061969;28;20052;-66
2023/01/28 13:05:40;;;;;;;6.05;4.15;;;1.80;99.90;;;;;;5064399;28;20056;-64
2023/01/28 13:08:22;;;;;;;9.88;2.97;;;1.70;99.90;;;;;;5064917;28;20123;-66
2023/01/28 13:10:50;;;;;;;11.65;3.35;;;1.70;99.90;;;;;;5061030;28;20464;-63
2023/01/28 13:13:25;;;;;;;8.77;3.28;;;1.80;99.90;;;;;;5066245;28;20051;-68
2023/01/28 13:15:52;;;;;;;5.97;3.35;;;1.70;99.90;;;;;;5061220;28;20048;-64
2023/01/28 13:18:41;;;;;;;7.30;4.00;;;1.70;99.90;;;;;;5063641;28;20744;-66
2023/01/28 13:21:23;;;;;;;9.30;3.85;;;1.70;99.90;;;;;;5063388;28;20049;-65
2023/01/28 13:24:08;;;;;;;7.22;3.00;;;1.70;99.90;;;;;;5064799;28;20121;-66
2023/01/28 13:26:53;;;;;;;4.43;3.33;;;1.70;99.90;;;;;;5064133;28;20490;-64
2023/01/28 13:29:31;;;;;;;5.22;2.85;;;1.80;99.90;;;;;;5064212;28;20511;-64
2023/01/28 13:32:01;;;;;;;8.43;3.40;;;1.70;99.90;;;;;;5066048;28;20118;-65
2023/01/28 13:34:56;;;;;;;10.02;5.35;;;1.80;99.90;;;;;;5062766;28;20048;-64
2023/01/28 13:37:26;;;;;;;8.82;3.92;;;1.80;99.90;;;;;;5052960;28;20472;-64
2023/01/28 13:40:00;;;;;;;6.88;2.97;;;1.80;99.90;;;;;;5064906;28;20040;-66
2023/01/28 13:42:28;;;;;;;7.38;2.95;;;1.80;99.90;;;;;;5065872;28;20425;-66
2023/01/28 13:45:07;;;;;;;14.93;3.08;;;1.90;99.90;;;;;;5060971;28;20076;-65
2023/01/28 13:47:36;;;;;;;7.28;3.08;;;1.80;99.90;;;;;;5064989;28;20187;-66
2023/01/28 13:50:17;;;;;;;6.03;3.50;;;1.80;99.90;;;;;;5064399;28;20472;-65
2023/01/28 13:53:06;;;;;;;8.82;4.03;;;1.80;99.90;;;;;;5064236;28;20045;-64
2023/01/28 13:55:38;;;;;;;15.80;4.25;;;1.80;99.90;;;;;;5063805;28;20102;-67
2023/01/28 13:58:42;;;;;;;7.80;3.58;;;1.80;99.90;;;;;;5064753;28;20083;-64